Aviation Digital Data Service (ADDS)

Output produced by METARs form (0858 UTC 18 February 2019)
found at http://www.aviationweather.gov/metar/data/
 
METAR text: OEDF 180800Z 01008KT CAVOK 20/04 Q1017 NOSIG
Conditions at: OEDF (KING FAHD INTL , SA) observed 0800 UTC 18 February 2019
Temperature: 20.0°C (68°F)
Dewpoint: 4.0°C (39°F) [RH = 35%]
Pressure (altimeter): 30.03 inches Hg (1017.0 mb)
Winds: from the N (10 degrees) at 9 MPH (8 knots; 4.1 m/s)
Visibility: 6 or more miles (10+ km)
Ceiling: ceiling and visibility are OK
Clouds: unknown
Weather: no significant weather observed at this time

METAR text: OEDF 180700Z 32007KT CAVOK 19/05 Q1018 NOSIG
Conditions at: OEDF (KING FAHD INTL , SA) observed 0700 UTC 18 February 2019
Temperature: 19.0°C (66°F)
Dewpoint: 5.0°C (41°F) [RH = 40%]
Pressure (altimeter): 30.06 inches Hg (1018.0 mb)
Winds: from the NW (320 degrees) at 8 MPH (7 knots; 3.6 m/s)
Visibility: 6 or more miles (10+ km)
Ceiling: ceiling and visibility are OK
Clouds: unknown
Weather: no significant weather observed at this time

METAR text: OEDF 180600Z 28004KT CAVOK 16/07 Q1019 NOSIG
Conditions at: OEDF (KING FAHD INTL , SA) observed 0600 UTC 18 February 2019
Temperature: 16.0°C (61°F)
Dewpoint: 7.0°C (45°F) [RH = 55%]
Pressure (altimeter): 30.09 inches Hg (1019.0 mb)
Winds: from the W (280 degrees) at 5 MPH (4 knots; 2.1 m/s)
Visibility: 6 or more miles (10+ km)
Ceiling: ceiling and visibility are OK
Clouds: unknown
Weather: no significant weather observed at this time

METAR text: OEDF 180500Z 29004KT CAVOK 13/05 Q1018 NOSIG
Conditions at: OEDF (KING FAHD INTL , SA) observed 0500 UTC 18 February 2019
Temperature: 13.0°C (55°F)
Dewpoint: 5.0°C (41°F) [RH = 58%]
Pressure (altimeter): 30.06 inches Hg (1018.0 mb)
Winds: from the WNW (290 degrees) at 5 MPH (4 knots; 2.1 m/s)
Visibility: 6 or more miles (10+ km)
Ceiling: ceiling and visibility are OK
Clouds: unknown
Weather: no significant weather observed at this time

METAR text: OEDF 180400Z 26005KT CAVOK 10/05 Q1018 NOSIG
Conditions at: OEDF (KING FAHD INTL , SA) observed 0400 UTC 18 February 2019
Temperature: 10.0°C (50°F)
Dewpoint: 5.0°C (41°F) [RH = 71%]
Pressure (altimeter): 30.06 inches Hg (1018.0 mb)
Winds: from the W (260 degrees) at 6 MPH (5 knots; 2.6 m/s)
Visibility: 6 or more miles (10+ km)
Ceiling: ceiling and visibility are OK
Clouds: unknown
Weather: no significant weather observed at this time

METAR text: OEDF 180300Z 27004KT CAVOK 10/06 Q1017 NOSIG
Conditions at: OEDF (KING FAHD INTL , SA) observed 0300 UTC 18 February 2019
Temperature: 10.0°C (50°F)
Dewpoint: 6.0°C (43°F) [RH = 76%]
Pressure (altimeter): 30.03 inches Hg (1017.0 mb)
Winds: from the W (270 degrees) at 5 MPH (4 knots; 2.1 m/s)
Visibility: 6 or more miles (10+ km)
Ceiling: ceiling and visibility are OK
Clouds: unknown
Weather: no significant weather observed at this time

METAR text: OEDF 180200Z 28006KT CAVOK 11/06 Q1017 NOSIG
Conditions at: OEDF (KING FAHD INTL , SA) observed 0200 UTC 18 February 2019
Temperature: 11.0°C (52°F)
Dewpoint: 6.0°C (43°F) [RH = 71%]
Pressure (altimeter): 30.03 inches Hg (1017.0 mb)
Winds: from the W (280 degrees) at 7 MPH (6 knots; 3.1 m/s)
Visibility: 6 or more miles (10+ km)
Ceiling: ceiling and visibility are OK
Clouds: unknown
Weather: no significant weather observed at this time

METAR text: OEDF 180100Z 29009KT CAVOK 11/06 Q1017 NOSIG
Conditions at: OEDF (KING FAHD INTL , SA) observed 0100 UTC 18 February 2019
Temperature: 11.0°C (52°F)
Dewpoint: 6.0°C (43°F) [RH = 71%]
Pressure (altimeter): 30.03 inches Hg (1017.0 mb)
Winds: from the WNW (290 degrees) at 10 MPH (9 knots; 4.6 m/s)
Visibility: 6 or more miles (10+ km)
Ceiling: ceiling and visibility are OK
Clouds: unknown
Weather: no significant weather observed at this time

METAR text: OEDF 180000Z 29008KT CAVOK 11/06 Q1017 NOSIG
Conditions at: OEDF (KING FAHD INTL , SA) observed 0000 UTC 18 February 2019
Temperature: 11.0°C (52°F)
Dewpoint: 6.0°C (43°F) [RH = 71%]
Pressure (altimeter): 30.03 inches Hg (1017.0 mb)
Winds: from the WNW (290 degrees) at 9 MPH (8 knots; 4.1 m/s)
Visibility: 6 or more miles (10+ km)
Ceiling: ceiling and visibility are OK
Clouds: unknown
Weather: no significant weather observed at this time

METAR text: OEDF 172300Z 28008KT CAVOK 12/06 Q1017 NOSIG
Conditions at: OEDF (KING FAHD INTL , SA) observed 2300 UTC 17 February 2019
Temperature: 12.0°C (54°F)
Dewpoint: 6.0°C (43°F) [RH = 67%]
Pressure (altimeter): 30.03 inches Hg (1017.0 mb)
Winds: from the W (280 degrees) at 9 MPH (8 knots; 4.1 m/s)
Visibility: 6 or more miles (10+ km)
Ceiling: ceiling and visibility are OK
Clouds: unknown
Weather: no significant weather observed at this time

METAR text: OEDF 172200Z 29008KT CAVOK 12/07 Q1018 NOSIG
Conditions at: OEDF (KING FAHD INTL , SA) observed 2200 UTC 17 February 2019
Temperature: 12.0°C (54°F)
Dewpoint: 7.0°C (45°F) [RH = 71%]
Pressure (altimeter): 30.06 inches Hg (1018.0 mb)
Winds: from the WNW (290 degrees) at 9 MPH (8 knots; 4.1 m/s)
Visibility: 6 or more miles (10+ km)
Ceiling: ceiling and visibility are OK
Clouds: unknown
Weather: no significant weather observed at this time

METAR text: OEDF 172100Z 28006KT CAVOK 12/07 Q1018 NOSIG
Conditions at: OEDF (KING FAHD INTL , SA) observed 2100 UTC 17 February 2019
Temperature: 12.0°C (54°F)
Dewpoint: 7.0°C (45°F) [RH = 71%]
Pressure (altimeter): 30.06 inches Hg (1018.0 mb)
Winds: from the W (280 degrees) at 7 MPH (6 knots; 3.1 m/s)
Visibility: 6 or more miles (10+ km)
Ceiling: ceiling and visibility are OK
Clouds: unknown
Weather: no significant weather observed at this time

METAR text: OEDF 172000Z 27005KT CAVOK 13/07 Q1018 NOSIG
Conditions at: OEDF (KING FAHD INTL , SA) observed 2000 UTC 17 February 2019
Temperature: 13.0°C (55°F)
Dewpoint: 7.0°C (45°F) [RH = 67%]
Pressure (altimeter): 30.06 inches Hg (1018.0 mb)
Winds: from the W (270 degrees) at 6 MPH (5 knots; 2.6 m/s)
Visibility: 6 or more miles (10+ km)
Ceiling: ceiling and visibility are OK
Clouds: unknown
Weather: no significant weather observed at this time

METAR text: OEDF 171900Z 29004KT CAVOK 14/06 Q1019 NOSIG
Conditions at: OEDF (KING FAHD INTL , SA) observed 1900 UTC 17 February 2019
Temperature: 14.0°C (57°F)
Dewpoint: 6.0°C (43°F) [RH = 58%]
Pressure (altimeter): 30.09 inches Hg (1019.0 mb)
Winds: from the WNW (290 degrees) at 5 MPH (4 knots; 2.1 m/s)
Visibility: 6 or more miles (10+ km)
Ceiling: ceiling and visibility are OK
Clouds: unknown
Weather: no significant weather observed at this time

METAR text: OEDF 171800Z 33004KT CAVOK 14/05 Q1019 NOSIG
Conditions at: OEDF (KING FAHD INTL , SA) observed 1800 UTC 17 February 2019
Temperature: 14.0°C (57°F)
Dewpoint: 5.0°C (41°F) [RH = 55%]
Pressure (altimeter): 30.09 inches Hg (1019.0 mb)
Winds: from the NNW (330 degrees) at 5 MPH (4 knots; 2.1 m/s)
Visibility: 6 or more miles (10+ km)
Ceiling: ceiling and visibility are OK
Clouds: unknown
Weather: no significant weather observed at this time

METAR text: OEDF 171700Z 34006KT CAVOK 15/05 Q1018 NOSIG
Conditions at: OEDF (KING FAHD INTL , SA) observed 1700 UTC 17 February 2019
Temperature: 15.0°C (59°F)
Dewpoint: 5.0°C (41°F) [RH = 51%]
Pressure (altimeter): 30.06 inches Hg (1018.0 mb)
Winds: from the NNW (340 degrees) at 7 MPH (6 knots; 3.1 m/s)
Visibility: 6 or more miles (10+ km)
Ceiling: ceiling and visibility are OK
Clouds: unknown
Weather: no significant weather observed at this time

METAR text: OEDF 171600Z 34005KT CAVOK 16/04 Q1018 NOSIG
Conditions at: OEDF (KING FAHD INTL , SA) observed 1600 UTC 17 February 2019
Temperature: 16.0°C (61°F)
Dewpoint: 4.0°C (39°F) [RH = 45%]
Pressure (altimeter): 30.06 inches Hg (1018.0 mb)
Winds: from the NNW (340 degrees) at 6 MPH (5 knots; 2.6 m/s)
Visibility: 6 or more miles (10+ km)
Ceiling: ceiling and visibility are OK
Clouds: unknown
Weather: no significant weather observed at this time

METAR text: OEDF 171500Z 340010KT CAVOK 17/03 Q1018 NOSIG
Conditions at: OEDF (KING FAHD INTL , SA) observed 1500 UTC 17 February 2019
Temperature: 17.0°C (63°F)
Dewpoint: 3.0°C (37°F) [RH = 39%]
Pressure (altimeter): 30.06 inches Hg (1018.0 mb)
Winds: from the NNW (340 degrees) at 12 MPH (10 knots; 5.1 m/s)
Visibility: 6 or more miles (10+ km)
Ceiling: ceiling and visibility are OK
Clouds: unknown
Weather: no significant weather observed at this time

METAR text: OEDF 171400Z 33017KT CAVOK 19/01 Q1017 NOSIG
Conditions at: OEDF (KING FAHD INTL , SA) observed 1400 UTC 17 February 2019
Temperature: 19.0°C (66°F)
Dewpoint: 1.0°C (34°F) [RH = 30%]
Pressure (altimeter): 30.03 inches Hg (1017.0 mb)
Winds: from the NNW (330 degrees) at 20 MPH (17 knots; 8.7 m/s)
Visibility: 6 or more miles (10+ km)
Ceiling: ceiling and visibility are OK
Clouds: unknown
Weather: no significant weather observed at this time

METAR text: OEDF 171300Z 33020KT 8000 FEW040 20/00 Q1017 NOSIG
Conditions at: OEDF (KING FAHD INTL , SA) observed 1300 UTC 17 February 2019
Temperature: 20.0°C (68°F)
Dewpoint: 0.0°C (32°F) [RH = 26%]
Pressure (altimeter): 30.03 inches Hg (1017.0 mb)
Winds: from the NNW (330 degrees) at 23 MPH (20 knots; 10.3 m/s)
Visibility: 5 miles ( 8 km)
Ceiling: at least 12,000 feet AGL
Clouds: few clouds at 4000 feet AGL
Weather: no significant weather observed at this time

METAR text: OEDF 171200Z 33018KT 8000 FEW040 21/03 Q1017 NOSIG
Conditions at: OEDF (KING FAHD INTL , SA) observed 1200 UTC 17 February 2019
Temperature: 21.0°C (70°F)
Dewpoint: 3.0°C (37°F) [RH = 30%]
Pressure (altimeter): 30.03 inches Hg (1017.0 mb)
Winds: from the NNW (330 degrees) at 21 MPH (18 knots; 9.3 m/s)
Visibility: 5 miles ( 8 km)
Ceiling: at least 12,000 feet AGL
Clouds: few clouds at 4000 feet AGL
Weather: no significant weather observed at this time

METAR text: OEDF 171100Z 35015KT CAVOK 21/05 Q1017 NOSIG
Conditions at: OEDF (KING FAHD INTL , SA) observed 1100 UTC 17 February 2019
Temperature: 21.0°C (70°F)
Dewpoint: 5.0°C (41°F) [RH = 35%]
Pressure (altimeter): 30.03 inches Hg (1017.0 mb)
Winds: from the N (350 degrees) at 17 MPH (15 knots; 7.7 m/s)
Visibility: 6 or more miles (10+ km)
Ceiling: ceiling and visibility are OK
Clouds: unknown
Weather: no significant weather observed at this time

METAR text: OEDF 171000Z 35013KT CAVOK 21/05 Q1018 NOSIG
Conditions at: OEDF (KING FAHD INTL , SA) observed 1000 UTC 17 February 2019
Temperature: 21.0°C (70°F)
Dewpoint: 5.0°C (41°F) [RH = 35%]
Pressure (altimeter): 30.06 inches Hg (1018.0 mb)
Winds: from the N (350 degrees) at 15 MPH (13 knots; 6.7 m/s)
Visibility: 6 or more miles (10+ km)
Ceiling: ceiling and visibility are OK
Clouds: unknown
Weather: no significant weather observed at this time

METAR text: OEDF 170900Z 34013KT CAVOK 20/05 Q1019 NOSIG
Conditions at: OEDF (KING FAHD INTL , SA) observed 0900 UTC 17 February 2019
Temperature: 20.0°C (68°F)
Dewpoint: 5.0°C (41°F) [RH = 37%]
Pressure (altimeter): 30.09 inches Hg (1019.0 mb)
Winds: from the NNW (340 degrees) at 15 MPH (13 knots; 6.7 m/s)
Visibility: 6 or more miles (10+ km)
Ceiling: ceiling and visibility are OK
Clouds: unknown
Weather: no significant weather observed at this time

METAR text: OEDF 170800Z 35016KT 9999 FEW040 SCT200 20/05 Q1020 NOSIG
Conditions at: OEDF (KING FAHD INTL , SA) observed 0800 UTC 17 February 2019
Temperature: 20.0°C (68°F)
Dewpoint: 5.0°C (41°F) [RH = 37%]
Pressure (altimeter): 30.12 inches Hg (1020.0 mb)
Winds: from the N (350 degrees) at 18 MPH (16 knots; 8.2 m/s)
Visibility: 6 or more miles (10+ km)
Ceiling: at least 12,000 feet AGL
Clouds: few clouds at 4000 feet AGL
scattered clouds at 20000 feet AGL
Weather: no significant weather observed at this time

METAR text: OEDF 170700Z 33012KT CAVOK 19/09 Q1020 NOSIG
Conditions at: OEDF (KING FAHD INTL , SA) observed 0700 UTC 17 February 2019
Temperature: 19.0°C (66°F)
Dewpoint: 9.0°C (48°F) [RH = 52%]
Pressure (altimeter): 30.12 inches Hg (1020.0 mb)
Winds: from the NNW (330 degrees) at 14 MPH (12 knots; 6.2 m/s)
Visibility: 6 or more miles (10+ km)
Ceiling: ceiling and visibility are OK
Clouds: unknown
Weather: no significant weather observed at this time

METAR text: OEDF 170600Z 31010KT 9999 FEW040 SCT200 16/09 Q1021 NOSIG
Conditions at: OEDF (KING FAHD INTL , SA) observed 0600 UTC 17 February 2019
Temperature: 16.0°C (61°F)
Dewpoint: 9.0°C (48°F) [RH = 63%]
Pressure (altimeter): 30.15 inches Hg (1021.0 mb)
Winds: from the NW (310 degrees) at 12 MPH (10 knots; 5.1 m/s)
Visibility: 6 or more miles (10+ km)
Ceiling: at least 12,000 feet AGL
Clouds: few clouds at 4000 feet AGL
scattered clouds at 20000 feet AGL
Weather: no significant weather observed at this time

METAR text: OEDF 170500Z 31012KT CAVOK 14/08 Q1020 NOSIG
Conditions at: OEDF (KING FAHD INTL , SA) observed 0500 UTC 17 February 2019
Temperature: 14.0°C (57°F)
Dewpoint: 8.0°C (46°F) [RH = 67%]
Pressure (altimeter): 30.12 inches Hg (1020.0 mb)
Winds: from the NW (310 degrees) at 14 MPH (12 knots; 6.2 m/s)
Visibility: 6 or more miles (10+ km)
Ceiling: ceiling and visibility are OK
Clouds: unknown
Weather: no significant weather observed at this time

METAR text: OEDF 170400Z 31008KT CAVOK 13/08 Q1019 NOSIG
Conditions at: OEDF (KING FAHD INTL , SA) observed 0400 UTC 17 February 2019
Temperature: 13.0°C (55°F)
Dewpoint: 8.0°C (46°F) [RH = 72%]
Pressure (altimeter): 30.09 inches Hg (1019.0 mb)
Winds: from the NW (310 degrees) at 9 MPH (8 knots; 4.1 m/s)
Visibility: 6 or more miles (10+ km)
Ceiling: ceiling and visibility are OK
Clouds: unknown
Weather: no significant weather observed at this time

METAR text: OEDF 170300Z 32011KT CAVOK 13/08 Q1018 NOSIG
Conditions at: OEDF (KING FAHD INTL , SA) observed 0300 UTC 17 February 2019
Temperature: 13.0°C (55°F)
Dewpoint: 8.0°C (46°F) [RH = 72%]
Pressure (altimeter): 30.06 inches Hg (1018.0 mb)
Winds: from the NW (320 degrees) at 13 MPH (11 knots; 5.7 m/s)
Visibility: 6 or more miles (10+ km)
Ceiling: ceiling and visibility are OK
Clouds: unknown
Weather: no significant weather observed at this time

METAR text: OEDF 170200Z 32010KT CAVOK 14/09 Q1018 NOSIG
Conditions at: OEDF (KING FAHD INTL , SA) observed 0200 UTC 17 February 2019
Temperature: 14.0°C (57°F)
Dewpoint: 9.0°C (48°F) [RH = 72%]
Pressure (altimeter): 30.06 inches Hg (1018.0 mb)
Winds: from the NW (320 degrees) at 12 MPH (10 knots; 5.1 m/s)
Visibility: 6 or more miles (10+ km)
Ceiling: ceiling and visibility are OK
Clouds: unknown
Weather: no significant weather observed at this time

METAR text: OEDF 170100Z 32010KT CAVOK 14/09 Q1017 NOSIG
Conditions at: OEDF (KING FAHD INTL , SA) observed 0100 UTC 17 February 2019
Temperature: 14.0°C (57°F)
Dewpoint: 9.0°C (48°F) [RH = 72%]
Pressure (altimeter): 30.03 inches Hg (1017.0 mb)
Winds: from the NW (320 degrees) at 12 MPH (10 knots; 5.1 m/s)
Visibility: 6 or more miles (10+ km)
Ceiling: ceiling and visibility are OK
Clouds: unknown
Weather: no significant weather observed at this time

METAR text: OEDF 170000Z 31008KT CAVOK 15/10 Q1017 NOSIG
Conditions at: OEDF (KING FAHD INTL , SA) observed 0000 UTC 17 February 2019
Temperature: 15.0°C (59°F)
Dewpoint: 10.0°C (50°F) [RH = 72%]
Pressure (altimeter): 30.03 inches Hg (1017.0 mb)
Winds: from the NW (310 degrees) at 9 MPH (8 knots; 4.1 m/s)
Visibility: 6 or more miles (10+ km)
Ceiling: ceiling and visibility are OK
Clouds: unknown
Weather: no significant weather observed at this time

METAR text: OEDF 162300Z 33011KT CAVOK 16/11 Q1017 NOSIG
Conditions at: OEDF (KING FAHD INTL , SA) observed 2300 UTC 16 February 2019
Temperature: 16.0°C (61°F)
Dewpoint: 11.0°C (52°F) [RH = 72%]
Pressure (altimeter): 30.03 inches Hg (1017.0 mb)
Winds: from the NNW (330 degrees) at 13 MPH (11 knots; 5.7 m/s)
Visibility: 6 or more miles (10+ km)
Ceiling: ceiling and visibility are OK
Clouds: unknown
Weather: no significant weather observed at this time

METAR text: OEDF 162200Z 33012KT CAVOK 16/12 Q1017 NOSIG
Conditions at: OEDF (KING FAHD INTL , SA) observed 2200 UTC 16 February 2019
Temperature: 16.0°C (61°F)
Dewpoint: 12.0°C (54°F) [RH = 77%]
Pressure (altimeter): 30.03 inches Hg (1017.0 mb)
Winds: from the NNW (330 degrees) at 14 MPH (12 knots; 6.2 m/s)
Visibility: 6 or more miles (10+ km)
Ceiling: ceiling and visibility are OK
Clouds: unknown
Weather: no significant weather observed at this time

METAR text: OEDF 162100Z 33014KT CAVOK 17/12 Q1017 NOSIG
Conditions at: OEDF (KING FAHD INTL , SA) observed 2100 UTC 16 February 2019
Temperature: 17.0°C (63°F)
Dewpoint: 12.0°C (54°F) [RH = 72%]
Pressure (altimeter): 30.03 inches Hg (1017.0 mb)
Winds: from the NNW (330 degrees) at 16 MPH (14 knots; 7.2 m/s)
Visibility: 6 or more miles (10+ km)
Ceiling: ceiling and visibility are OK
Clouds: unknown
Weather: no significant weather observed at this time

Forecast for: OEDF (KING FAHD INTL , SA)
Text: TAF OEDF 180330Z 1806/1912 36013KT CAVOK
Forecast period: 0600 UTC 18 February 2019 to 1200 UTC 19 February 2019
Forecast type: FROM: standard forecast or significant change
Winds: from the N (360 degrees) at 15 MPH (13 knots; 6.7 m/s)
Visibility: 6 or more miles 10+ km)
Ceiling: unknown
Clouds: missing
Weather: NSW  (no significant weather)